Beaufort, SC

4:23 AM EST on December 19, 2014 (GMT -0500)
KSCBEAUF5 | Change Station
CLOSE
Current Station
Personal Weather Station
Location: Beaufort, SC
Elevation: 13 ft
Nearby Weather Stations

Elev 13 ft 32.42 °N, 80.69 °W | Updated 3 minutes ago

Partly Cloudy
Partly Cloudy
46.0 °F
Feels Like 46 °F
N
2.0
Wind Variable Wind from SE
Gusts 2.0 mph

Today
High -- | Low -- °F
--% Chance of Precip.
Yesterday
High -- | Low -- °F
Precip. -- in
7:19 AM 5:20 PM
Waning Crescent, 9% visible
Pressure 30.09 in
Visibility 10.0 miles
Clouds Clear
Windchill 46 °F
Dew Point 45 °F
Humidity 95%
Rainfall 0.00 in
Snow Depth Not available.
UV 0.0 out of 12
Pollen 2.40 out of 12
Air Quality Not available.
Flu Activity Not available.
METAR KNBC 190856Z AUTO 22003KT 10SM CLR 07/06 A3009 RMK AO2 SLP190 T00720056 58001 $

More Conditions Fewer Conditions

Pressure 30.09 in
Visibility 10.0 miles
Clouds Clear
Windchill 46 °F
Dew Point 45 °F
Humidity 95%
Rainfall 0.00 in
Snow Depth Not available.
UV 0.0 out of 12
Pollen 2.40 out of 12
Air Quality Not available.
Flu Activity Not available.
METAR KNBC 190856Z AUTO 22003KT 10SM CLR 07/06 A3009 RMK AO2 SLP190 T00720056 58001 $

More Conditions Fewer Conditions

10-Day Weather Forecast

Almanac

Astronomy

Dec. 19, 2014 Rise Set
Actual Time
Civil Twilight
Nautical Twilight
Astronomical Twilight
Moon
Length of Visible Light
Length of Day
Tomorrow will be .
, % of the Moon is Illuminated

Today's Extremes

State Highs State Lows

Community

WunderPhotos

Upload Photos

1,778,966 photos uploaded!

WunderBlogs® & News

Nearby

Air Quality

  Air Quality AQ Index Pollutant
Not available.

Snow Depth

Station Depth Elevation

Earthquake Activity

City Distance Mag. Time & Date
Minimum magnitude displayed is 2.5.

Coastal Water Temperatures

Place Temperature

Nearby Weather Stations